PWSweather.com
Personal Weather Stations
Station Observations
ISYDDANM23
Felsted, AabenraaDK 6200

FelstedAabenraaDK 6200

Lat: 54.977066, Lon: 9.507192

Elevation: 135

Station Type: Davis Vantage Pro 2 Plus 24H

http://www.valkaer.dk

Latest ConditionsUpdated 6:10:01 PM GMT+01:01 Sunday, Jan 26, 2020
Currently Today's Max Today's Min Today's Average
Temperature 38.1°F3.4°C 41.4°F5.2°C 37.2°F2.9°C 38.7°F3.7°C
Dew Point 35.5°F1.9°C 37.6°F3.1°C 35.1°F1.7°C 36.3°F2.4°C
Winds 4.6 mph S7.4 kmh S 11.5 mph -18.5 kmh - - 6.9 mph 11.1 kmh
Wind Gusts 5.8 mph9.3 kmh 17.3 mph27.8 kmh - -
Humidity 90% 93% 85% 91%
Pressure 29.88 in1011.9 mb 30.03 in1016.9 mb 29.88 in1011.9 mb -
Hour Temp Dew Point Humidity Winds Wind Gusts Pressure Precip Precip Rate Daily Precip Total
06:10 PM 38.1°F3.4°C 35.5°F1.9°C 90% 4.6 mph S7.4 kmh S 5.8 mph9.3 kmh 29.88 in1011.9 mb - 0.00 in0.0 mm 0.00 in0.0 mm
06:00 PM 38.2°F3.4°C 35.5°F1.9°C 90% 6.9 mph S11.1 kmh S 9.2 mph14.8 kmh 29.88 in1011.9 mb - 0.00 in0.0 mm 0.00 in0.0 mm
05:55 PM 38.2°F3.4°C 35.6°F2.0°C 90% 3.5 mph S5.6 kmh S 4.6 mph7.4 kmh 29.88 in1011.9 mb - 0.00 in0.0 mm 0.00 in0.0 mm
05:50 PM 38.3°F3.5°C 35.6°F2.0°C 90% 6.9 mph S11.1 kmh S 9.2 mph14.8 kmh 29.88 in1011.9 mb - 0.00 in0.0 mm 0.00 in0.0 mm
05:45 PM 38.3°F3.5°C 35.6°F2.0°C 90% 5.8 mph S9.3 kmh S 11.5 mph18.5 kmh 29.88 in1011.9 mb - 0.00 in0.0 mm 0.00 in0.0 mm
05:40 PM 38.3°F3.5°C 35.6°F2.0°C 90% 5.8 mph S9.3 kmh S 9.2 mph14.8 kmh 29.89 in1012.2 mb - 0.00 in0.0 mm 0.00 in0.0 mm
05:35 PM 38.3°F3.5°C 35.7°F2.1°C 90% 5.8 mph S9.3 kmh S 11.5 mph18.5 kmh 29.89 in1012.2 mb - 0.00 in0.0 mm 0.00 in0.0 mm
05:30 PM 38.4°F3.6°C 35.7°F2.1°C 90% 6.9 mph S11.1 kmh S 10.4 mph16.7 kmh 29.89 in1012.2 mb - 0.00 in0.0 mm 0.00 in0.0 mm
05:25 PM 38.5°F3.6°C 35.8°F2.1°C 90% 5.8 mph S9.3 kmh S 10.4 mph16.7 kmh 29.89 in1012.2 mb - 0.00 in0.0 mm 0.00 in0.0 mm
05:20 PM 38.6°F3.7°C 35.9°F2.2°C 90% 5.8 mph S9.3 kmh S 8.1 mph13.0 kmh 29.89 in1012.2 mb - 0.00 in0.0 mm 0.00 in0.0 mm
05:15 PM 38.6°F3.7°C 36.0°F2.2°C 90% 4.6 mph S7.4 kmh S 6.9 mph11.1 kmh 29.89 in1012.2 mb - 0.00 in0.0 mm 0.00 in0.0 mm
05:10 PM 38.7°F3.7°C 36.0°F2.2°C 90% 4.6 mph S7.4 kmh S 11.5 mph18.5 kmh 29.89 in1012.2 mb - 0.00 in0.0 mm 0.00 in0.0 mm
05:00 PM 38.7°F3.7°C 36.1°F2.3°C 90% 4.6 mph SSE7.4 kmh SSE 6.9 mph11.1 kmh 29.89 in1012.2 mb - 0.00 in0.0 mm 0.00 in0.0 mm
04:55 PM 38.8°F3.8°C 36.1°F2.3°C 90% 4.6 mph S7.4 kmh S 6.9 mph11.1 kmh 29.89 in1012.2 mb - 0.00 in0.0 mm 0.00 in0.0 mm
04:50 PM 38.8°F3.8°C 36.1°F2.3°C 90% 5.8 mph S9.3 kmh S 6.9 mph11.1 kmh 29.89 in1012.2 mb - 0.00 in0.0 mm 0.00 in0.0 mm
04:45 PM 38.9°F3.8°C 36.2°F2.3°C 90% 4.6 mph S7.4 kmh S 5.8 mph9.3 kmh 29.89 in1012.2 mb - 0.00 in0.0 mm 0.00 in0.0 mm
04:40 PM 38.9°F3.8°C 36.3°F2.4°C 90% 5.8 mph S9.3 kmh S 9.2 mph14.8 kmh 29.89 in1012.2 mb - 0.00 in0.0 mm 0.00 in0.0 mm
04:35 PM 38.9°F3.8°C 36.3°F2.4°C 90% 8.1 mph S13.0 kmh S 11.5 mph18.5 kmh 29.89 in1012.2 mb - 0.00 in0.0 mm 0.00 in0.0 mm
04:30 PM 39.0°F3.9°C 36.3°F2.4°C 90% 4.6 mph S7.4 kmh S 5.8 mph9.3 kmh 29.89 in1012.2 mb - 0.00 in0.0 mm 0.00 in0.0 mm
04:25 PM 39.0°F3.9°C 36.1°F2.3°C 89% 5.8 mph S9.3 kmh S 9.2 mph14.8 kmh 29.90 in1012.5 mb - 0.00 in0.0 mm 0.00 in0.0 mm
04:20 PM 39.1°F3.9°C 36.4°F2.4°C 90% 5.8 mph S9.3 kmh S 9.2 mph14.8 kmh 29.90 in1012.5 mb - 0.00 in0.0 mm 0.00 in0.0 mm
04:15 PM 39.1°F3.9°C 36.4°F2.4°C 90% 5.8 mph S9.3 kmh S 6.9 mph11.1 kmh 29.90 in1012.5 mb - 0.00 in0.0 mm 0.00 in0.0 mm
04:10 PM 39.0°F3.9°C 36.0°F2.2°C 89% 5.8 mph S9.3 kmh S 5.8 mph9.3 kmh 29.90 in1012.5 mb - 0.00 in0.0 mm 0.00 in0.0 mm
04:00 PM 39.0°F3.9°C 36.0°F2.2°C 89% 5.8 mph S9.3 kmh S 6.9 mph11.1 kmh 29.90 in1012.5 mb - 0.00 in0.0 mm 0.00 in0.0 mm
03:55 PM 39.0°F3.9°C 36.0°F2.2°C 89% 5.8 mph S9.3 kmh S 8.1 mph13.0 kmh 29.91 in1012.9 mb - 0.00 in0.0 mm 0.00 in0.0 mm
03:50 PM 39.0°F3.9°C 36.0°F2.2°C 89% 3.5 mph S5.6 kmh S 9.2 mph14.8 kmh 29.90 in1012.5 mb - 0.00 in0.0 mm 0.00 in0.0 mm
03:45 PM 39.0°F3.9°C 36.0°F2.2°C 89% 4.6 mph S7.4 kmh S 6.9 mph11.1 kmh 29.91 in1012.9 mb - 0.00 in0.0 mm 0.00 in0.0 mm
03:40 PM 39.1°F3.9°C 36.1°F2.3°C 89% 6.9 mph S11.1 kmh S 9.2 mph14.8 kmh 29.91 in1012.9 mb - 0.00 in0.0 mm 0.00 in0.0 mm
03:35 PM 39.2°F4.0°C 35.9°F2.2°C 88% 8.1 mph S13.0 kmh S 11.5 mph18.5 kmh 29.91 in1012.9 mb - 0.00 in0.0 mm 0.00 in0.0 mm
03:30 PM 39.3°F4.1°C 36.0°F2.2°C 88% 6.9 mph S11.1 kmh S 9.2 mph14.8 kmh 29.91 in1012.9 mb - 0.00 in0.0 mm 0.00 in0.0 mm
03:25 PM 39.6°F4.2°C 36.3°F2.4°C 88% 8.1 mph S13.0 kmh S 11.5 mph18.5 kmh 29.91 in1012.9 mb - 0.00 in0.0 mm 0.00 in0.0 mm
03:20 PM 39.9°F4.4°C 36.3°F2.4°C 87% 9.2 mph S14.8 kmh S 13.8 mph22.2 kmh 29.91 in1012.9 mb - 0.00 in0.0 mm 0.00 in0.0 mm
03:15 PM 40.1°F4.5°C 36.6°F2.6°C 87% 6.9 mph S11.1 kmh S 10.4 mph16.7 kmh 29.91 in1012.9 mb - 0.00 in0.0 mm 0.00 in0.0 mm
03:10 PM 40.4°F4.7°C 36.8°F2.7°C 87% 8.1 mph S13.0 kmh S 11.5 mph18.5 kmh 29.91 in1012.9 mb - 0.00 in0.0 mm 0.00 in0.0 mm
03:00 PM 40.6°F4.8°C 37.0°F2.8°C 87% 8.1 mph S13.0 kmh S 11.5 mph18.5 kmh 29.91 in1012.9 mb - 0.00 in0.0 mm 0.00 in0.0 mm
02:55 PM 40.6°F4.8°C 36.8°F2.7°C 86% 6.9 mph S11.1 kmh S 9.2 mph14.8 kmh 29.91 in1012.9 mb - 0.00 in0.0 mm 0.00 in0.0 mm
02:50 PM 40.9°F4.9°C 37.1°F2.8°C 86% 9.2 mph S14.8 kmh S 16.1 mph25.9 kmh 29.92 in1013.2 mb - 0.00 in0.0 mm 0.00 in0.0 mm
02:45 PM 41.0°F5.0°C 37.1°F2.8°C 86% 8.1 mph S13.0 kmh S 10.4 mph16.7 kmh 29.91 in1012.9 mb - 0.00 in0.0 mm 0.00 in0.0 mm
02:40 PM 40.9°F4.9°C 36.8°F2.7°C 85% 6.9 mph SSW11.1 kmh SSW 9.2 mph14.8 kmh 29.92 in1013.2 mb - 0.00 in0.0 mm 0.00 in0.0 mm
02:35 PM 41.0°F5.0°C 36.9°F2.7°C 85% 9.2 mph S14.8 kmh S 15.0 mph24.1 kmh 29.92 in1013.2 mb - 0.00 in0.0 mm 0.00 in0.0 mm
02:30 PM 41.1°F5.1°C 37.3°F2.9°C 86% 5.8 mph S9.3 kmh S 10.4 mph16.7 kmh 29.92 in1013.2 mb - 0.00 in0.0 mm 0.00 in0.0 mm
02:25 PM 41.2°F5.1°C 37.3°F2.9°C 86% 9.2 mph S14.8 kmh S 15.0 mph24.1 kmh 29.92 in1013.2 mb - 0.00 in0.0 mm 0.00 in0.0 mm
02:20 PM 41.3°F5.2°C 37.4°F3.0°C 86% 9.2 mph S14.8 kmh S 12.7 mph20.4 kmh 29.92 in1013.2 mb - 0.00 in0.0 mm 0.00 in0.0 mm
02:15 PM 41.3°F5.2°C 37.4°F3.0°C 86% 8.1 mph S13.0 kmh S 12.7 mph20.4 kmh 29.92 in1013.2 mb - 0.00 in0.0 mm 0.00 in0.0 mm
02:10 PM 41.4°F5.2°C 37.5°F3.1°C 86% 8.1 mph S13.0 kmh S 13.8 mph22.2 kmh 29.93 in1013.5 mb - 0.00 in0.0 mm 0.00 in0.0 mm
02:00 PM 41.1°F5.1°C 37.2°F2.9°C 86% 6.9 mph S11.1 kmh S 16.1 mph25.9 kmh 29.93 in1013.5 mb - 0.00 in0.0 mm 0.00 in0.0 mm
01:55 PM 41.0°F5.0°C 37.2°F2.9°C 86% 6.9 mph SSE11.1 kmh SSE 9.2 mph14.8 kmh 29.93 in1013.5 mb - 0.00 in0.0 mm 0.00 in0.0 mm
01:50 PM 41.0°F5.0°C 37.1°F2.8°C 86% 6.9 mph SSE11.1 kmh SSE 10.4 mph16.7 kmh 29.93 in1013.5 mb - 0.00 in0.0 mm 0.00 in0.0 mm
01:45 PM 40.9°F4.9°C 37.0°F2.8°C 86% 6.9 mph S11.1 kmh S 10.4 mph16.7 kmh 29.93 in1013.5 mb - 0.00 in0.0 mm 0.00 in0.0 mm
01:40 PM 40.8°F4.9°C 37.0°F2.8°C 86% 8.1 mph S13.0 kmh S 17.3 mph27.8 kmh 29.93 in1013.5 mb - 0.00 in0.0 mm 0.00 in0.0 mm
01:35 PM 40.8°F4.9°C 37.2°F2.9°C 87% 9.2 mph S14.8 kmh S 11.5 mph18.5 kmh 29.93 in1013.5 mb - 0.00 in0.0 mm 0.00 in0.0 mm
01:30 PM 40.6°F4.8°C 36.7°F2.6°C 86% 6.9 mph S11.1 kmh S 11.5 mph18.5 kmh 29.93 in1013.5 mb - 0.00 in0.0 mm 0.00 in0.0 mm
01:25 PM 40.6°F4.8°C 37.1°F2.8°C 87% 5.8 mph S9.3 kmh S 11.5 mph18.5 kmh 29.93 in1013.5 mb - 0.00 in0.0 mm 0.00 in0.0 mm
01:20 PM 40.6°F4.8°C 36.7°F2.6°C 86% 8.1 mph SSW13.0 kmh SSW 11.5 mph18.5 kmh 29.93 in1013.5 mb - 0.00 in0.0 mm 0.00 in0.0 mm
01:15 PM 40.7°F4.8°C 37.1°F2.8°C 87% 6.9 mph S11.1 kmh S 11.5 mph18.5 kmh 29.94 in1013.9 mb - 0.00 in0.0 mm 0.00 in0.0 mm
01:10 PM 40.5°F4.7°C 36.9°F2.7°C 87% 6.9 mph S11.1 kmh S 10.4 mph16.7 kmh 29.94 in1013.9 mb - 0.00 in0.0 mm 0.00 in0.0 mm
01:00 PM 40.1°F4.5°C 36.5°F2.5°C 87% 8.1 mph SSE13.0 kmh SSE 10.4 mph16.7 kmh 29.94 in1013.9 mb - 0.00 in0.0 mm 0.00 in0.0 mm
12:55 PM 40.2°F4.6°C 36.9°F2.7°C 88% 8.1 mph S13.0 kmh S 11.5 mph18.5 kmh 29.94 in1013.9 mb - 0.00 in0.0 mm 0.00 in0.0 mm
12:50 PM 40.3°F4.6°C 37.3°F2.9°C 89% 8.1 mph SSE13.0 kmh SSE 11.5 mph18.5 kmh 29.95 in1014.2 mb - 0.00 in0.0 mm 0.00 in0.0 mm
12:45 PM 39.9°F4.4°C 36.9°F2.7°C 89% 6.9 mph S11.1 kmh S 11.5 mph18.5 kmh 29.94 in1013.9 mb - 0.00 in0.0 mm 0.00 in0.0 mm
12:40 PM 39.7°F4.3°C 36.7°F2.6°C 89% 5.8 mph S9.3 kmh S 11.5 mph18.5 kmh 29.95 in1014.2 mb - 0.00 in0.0 mm 0.00 in0.0 mm
12:35 PM 39.4°F4.1°C 36.4°F2.4°C 89% 6.9 mph S11.1 kmh S 10.4 mph16.7 kmh 29.95 in1014.2 mb - 0.00 in0.0 mm 0.00 in0.0 mm
12:30 PM 39.3°F4.1°C 36.3°F2.4°C 89% 6.9 mph S11.1 kmh S 11.5 mph18.5 kmh 29.96 in1014.6 mb - 0.00 in0.0 mm 0.00 in0.0 mm
12:25 PM 39.1°F3.9°C 36.4°F2.4°C 90% 6.9 mph SSW11.1 kmh SSW 10.4 mph16.7 kmh 29.96 in1014.6 mb - 0.00 in0.0 mm 0.00 in0.0 mm
12:20 PM 39.1°F3.9°C 36.4°F2.4°C 90% 6.9 mph S11.1 kmh S 11.5 mph18.5 kmh 29.96 in1014.6 mb - 0.00 in0.0 mm 0.00 in0.0 mm
12:15 PM 38.9°F3.8°C 36.2°F2.3°C 90% 5.8 mph S9.3 kmh S 10.4 mph16.7 kmh 29.97 in1014.9 mb - 0.00 in0.0 mm 0.00 in0.0 mm
12:10 PM 38.7°F3.7°C 36.0°F2.2°C 90% 6.9 mph S11.1 kmh S 10.4 mph16.7 kmh 29.97 in1014.9 mb - 0.00 in0.0 mm 0.00 in0.0 mm
12:00 PM 38.6°F3.7°C 36.2°F2.3°C 91% 8.1 mph S13.0 kmh S 10.4 mph16.7 kmh 29.97 in1014.9 mb - 0.00 in0.0 mm 0.00 in0.0 mm
11:55 AM 38.4°F3.6°C 36.0°F2.2°C 91% 9.2 mph S14.8 kmh S 12.7 mph20.4 kmh 29.98 in1015.2 mb - 0.00 in0.0 mm 0.00 in0.0 mm
11:50 AM 38.4°F3.6°C 36.0°F2.2°C 91% 5.8 mph SSW9.3 kmh SSW 9.2 mph14.8 kmh 29.98 in1015.2 mb - 0.00 in0.0 mm 0.00 in0.0 mm
11:45 AM 38.2°F3.4°C 35.8°F2.1°C 91% 8.1 mph SSW13.0 kmh SSW 11.5 mph18.5 kmh 29.98 in1015.2 mb - 0.00 in0.0 mm 0.00 in0.0 mm
11:40 AM 38.1°F3.4°C 35.7°F2.1°C 91% 5.8 mph SSW9.3 kmh SSW 9.2 mph14.8 kmh 29.98 in1015.2 mb - 0.00 in0.0 mm 0.00 in0.0 mm
11:35 AM 38.0°F3.3°C 35.6°F2.0°C 91% 6.9 mph SSW11.1 kmh SSW 8.1 mph13.0 kmh 29.98 in1015.2 mb - 0.00 in0.0 mm 0.00 in0.0 mm
11:30 AM 38.0°F3.3°C 35.6°F2.0°C 91% 6.9 mph S11.1 kmh S 13.8 mph22.2 kmh 29.98 in1015.2 mb - 0.00 in0.0 mm 0.00 in0.0 mm
11:25 AM 37.9°F3.3°C 35.5°F1.9°C 91% 6.9 mph S11.1 kmh S 10.4 mph16.7 kmh 29.98 in1015.2 mb - 0.00 in0.0 mm 0.00 in0.0 mm
11:20 AM 37.9°F3.3°C 35.5°F1.9°C 91% 6.9 mph S11.1 kmh S 9.2 mph14.8 kmh 29.98 in1015.2 mb - 0.00 in0.0 mm 0.00 in0.0 mm
11:15 AM 37.8°F3.2°C 35.4°F1.9°C 91% 5.8 mph SSW9.3 kmh SSW 8.1 mph13.0 kmh 29.98 in1015.2 mb - 0.00 in0.0 mm 0.00 in0.0 mm
11:10 AM 37.7°F3.2°C 35.3°F1.8°C 91% 5.8 mph S9.3 kmh S 9.2 mph14.8 kmh 29.98 in1015.2 mb - 0.00 in0.0 mm 0.00 in0.0 mm
11:00 AM 37.5°F3.1°C 35.1°F1.7°C 91% 6.9 mph S11.1 kmh S 10.4 mph16.7 kmh 29.98 in1015.2 mb - 0.00 in0.0 mm 0.00 in0.0 mm
10:55 AM 37.4°F3.0°C 35.3°F1.8°C 92% 6.9 mph S11.1 kmh S 11.5 mph18.5 kmh 29.98 in1015.2 mb - 0.00 in0.0 mm 0.00 in0.0 mm
10:50 AM 37.4°F3.0°C 35.3°F1.8°C 92% 9.2 mph S14.8 kmh S 12.7 mph20.4 kmh 29.98 in1015.2 mb - 0.00 in0.0 mm 0.00 in0.0 mm
10:45 AM 37.4°F3.0°C 35.3°F1.8°C 92% 8.1 mph S13.0 kmh S 15.0 mph24.1 kmh 29.98 in1015.2 mb - 0.00 in0.0 mm 0.00 in0.0 mm
10:40 AM 37.3°F2.9°C 35.2°F1.8°C 92% 5.8 mph S9.3 kmh S 6.9 mph11.1 kmh 29.98 in1015.2 mb - 0.00 in0.0 mm 0.00 in0.0 mm
10:35 AM 37.3°F2.9°C 35.2°F1.8°C 92% 6.9 mph S11.1 kmh S 10.4 mph16.7 kmh 29.98 in1015.2 mb - 0.00 in0.0 mm 0.00 in0.0 mm
10:30 AM 37.2°F2.9°C 35.1°F1.7°C 92% 8.1 mph SSW13.0 kmh SSW 8.1 mph13.0 kmh 29.98 in1015.2 mb - 0.00 in0.0 mm 0.00 in0.0 mm
10:25 AM 37.3°F2.9°C 35.2°F1.8°C 92% 6.9 mph SSW11.1 kmh SSW 9.2 mph14.8 kmh 29.98 in1015.2 mb - 0.00 in0.0 mm 0.00 in0.0 mm
10:20 AM 37.3°F2.9°C 35.2°F1.8°C 92% 4.6 mph SSW7.4 kmh SSW 6.9 mph11.1 kmh 29.98 in1015.2 mb - 0.00 in0.0 mm 0.00 in0.0 mm
10:15 AM 37.3°F2.9°C 35.2°F1.8°C 92% 6.9 mph S11.1 kmh S 8.1 mph13.0 kmh 29.99 in1015.6 mb - 0.00 in0.0 mm 0.00 in0.0 mm
10:10 AM 37.3°F2.9°C 35.2°F1.8°C 92% 5.8 mph S9.3 kmh S 9.2 mph14.8 kmh 29.98 in1015.2 mb - 0.00 in0.0 mm 0.00 in0.0 mm
10:00 AM 37.3°F2.9°C 35.2°F1.8°C 92% 6.9 mph SSW11.1 kmh SSW 8.1 mph13.0 kmh 29.98 in1015.2 mb - 0.00 in0.0 mm 0.00 in0.0 mm
09:55 AM 37.2°F2.9°C 35.1°F1.7°C 92% 8.1 mph S13.0 kmh S 10.4 mph16.7 kmh 29.98 in1015.2 mb - 0.00 in0.0 mm 0.00 in0.0 mm
09:50 AM 37.2°F2.9°C 35.1°F1.7°C 92% 5.8 mph S9.3 kmh S 10.4 mph16.7 kmh 29.98 in1015.2 mb - 0.00 in0.0 mm 0.00 in0.0 mm
09:45 AM 37.2°F2.9°C 35.1°F1.7°C 92% 5.8 mph SSW9.3 kmh SSW 8.1 mph13.0 kmh 29.98 in1015.2 mb - 0.00 in0.0 mm 0.00 in0.0 mm
09:40 AM 37.3°F2.9°C 35.2°F1.8°C 92% 8.1 mph S13.0 kmh S 11.5 mph18.5 kmh 29.98 in1015.2 mb - 0.00 in0.0 mm 0.00 in0.0 mm
09:35 AM 37.2°F2.9°C 35.4°F1.9°C 93% 5.8 mph S9.3 kmh S 9.2 mph14.8 kmh 29.98 in1015.2 mb - 0.00 in0.0 mm 0.00 in0.0 mm
09:30 AM 37.3°F2.9°C 35.5°F1.9°C 93% 6.9 mph SSW11.1 kmh SSW 9.2 mph14.8 kmh 29.98 in1015.2 mb - 0.00 in0.0 mm 0.00 in0.0 mm
09:25 AM 37.3°F2.9°C 35.5°F1.9°C 93% 6.9 mph S11.1 kmh S 10.4 mph16.7 kmh 29.98 in1015.2 mb - 0.00 in0.0 mm 0.00 in0.0 mm
09:20 AM 37.3°F2.9°C 35.5°F1.9°C 93% 6.9 mph S11.1 kmh S 11.5 mph18.5 kmh 29.98 in1015.2 mb - 0.00 in0.0 mm 0.00 in0.0 mm
09:15 AM 37.2°F2.9°C 35.4°F1.9°C 93% 6.9 mph S11.1 kmh S 9.2 mph14.8 kmh 29.98 in1015.2 mb - 0.00 in0.0 mm 0.00 in0.0 mm
09:10 AM 37.3°F2.9°C 35.5°F1.9°C 93% 6.9 mph SSW11.1 kmh SSW 10.4 mph16.7 kmh 29.98 in1015.2 mb - 0.00 in0.0 mm 0.00 in0.0 mm
09:00 AM 37.3°F2.9°C 35.5°F1.9°C 93% 6.9 mph S11.1 kmh S 9.2 mph14.8 kmh 29.98 in1015.2 mb - 0.00 in0.0 mm 0.00 in0.0 mm
08:55 AM 37.3°F2.9°C 35.5°F1.9°C 93% 8.1 mph SSW13.0 kmh SSW 11.5 mph18.5 kmh 29.98 in1015.2 mb - 0.00 in0.0 mm 0.00 in0.0 mm
08:50 AM 37.3°F2.9°C 35.5°F1.9°C 93% 5.8 mph SSW9.3 kmh SSW 8.1 mph13.0 kmh 29.98 in1015.2 mb - 0.00 in0.0 mm 0.00 in0.0 mm
08:45 AM 37.3°F2.9°C 35.5°F1.9°C 93% 5.8 mph SSW9.3 kmh SSW 6.9 mph11.1 kmh 29.99 in1015.6 mb - 0.00 in0.0 mm 0.00 in0.0 mm
08:40 AM 37.3°F2.9°C 35.5°F1.9°C 93% 4.6 mph SSW7.4 kmh SSW 8.1 mph13.0 kmh 29.98 in1015.2 mb - 0.00 in0.0 mm 0.00 in0.0 mm
08:35 AM 37.4°F3.0°C 35.6°F2.0°C 93% 4.6 mph SSW7.4 kmh SSW 5.8 mph9.3 kmh 29.98 in1015.2 mb - 0.00 in0.0 mm 0.00 in0.0 mm
08:30 AM 37.4°F3.0°C 35.6°F2.0°C 93% 5.8 mph SSW9.3 kmh SSW 6.9 mph11.1 kmh 29.98 in1015.2 mb - 0.00 in0.0 mm 0.00 in0.0 mm
08:25 AM 37.4°F3.0°C 35.6°F2.0°C 93% 6.9 mph SSW11.1 kmh SSW 6.9 mph11.1 kmh 29.98 in1015.2 mb - 0.00 in0.0 mm 0.00 in0.0 mm
08:20 AM 37.4°F3.0°C 35.6°F2.0°C 93% 4.6 mph SSW7.4 kmh SSW 6.9 mph11.1 kmh 29.98 in1015.2 mb - 0.00 in0.0 mm 0.00 in0.0 mm
08:15 AM 37.5°F3.1°C 35.7°F2.1°C 93% 5.8 mph SSW9.3 kmh SSW 8.1 mph13.0 kmh 29.98 in1015.2 mb - 0.00 in0.0 mm 0.00 in0.0 mm
08:10 AM 37.5°F3.1°C 35.7°F2.1°C 93% 6.9 mph SW11.1 kmh SW 9.2 mph14.8 kmh 29.98 in1015.2 mb - 0.00 in0.0 mm 0.00 in0.0 mm
08:00 AM 37.6°F3.1°C 35.8°F2.1°C 93% 6.9 mph SW11.1 kmh SW 9.2 mph14.8 kmh 29.98 in1015.2 mb - 0.00 in0.0 mm 0.00 in0.0 mm
07:55 AM 37.6°F3.1°C 35.8°F2.1°C 93% 5.8 mph SW9.3 kmh SW 8.1 mph13.0 kmh 29.98 in1015.2 mb - 0.00 in0.0 mm 0.00 in0.0 mm
07:50 AM 37.6°F3.1°C 35.8°F2.1°C 93% 5.8 mph SSW9.3 kmh SSW 8.1 mph13.0 kmh 29.98 in1015.2 mb - 0.00 in0.0 mm 0.00 in0.0 mm
07:45 AM 37.7°F3.2°C 35.9°F2.2°C 93% 6.9 mph SSW11.1 kmh SSW 9.2 mph14.8 kmh 29.98 in1015.2 mb - 0.00 in0.0 mm 0.00 in0.0 mm
07:40 AM 37.8°F3.2°C 36.0°F2.2°C 93% 6.9 mph SSW11.1 kmh SSW 8.1 mph13.0 kmh 29.98 in1015.2 mb - 0.00 in0.0 mm 0.00 in0.0 mm
07:35 AM 37.8°F3.2°C 36.0°F2.2°C 93% 8.1 mph SW13.0 kmh SW 9.2 mph14.8 kmh 29.98 in1015.2 mb - 0.00 in0.0 mm 0.00 in0.0 mm
07:30 AM 37.9°F3.3°C 36.1°F2.3°C 93% 5.8 mph SSW9.3 kmh SSW 8.1 mph13.0 kmh 29.98 in1015.2 mb - 0.00 in0.0 mm 0.00 in0.0 mm
07:25 AM 37.8°F3.2°C 36.0°F2.2°C 93% 5.8 mph SW9.3 kmh SW 8.1 mph13.0 kmh 29.98 in1015.2 mb - 0.00 in0.0 mm 0.00 in0.0 mm
07:20 AM 37.8°F3.2°C 36.0°F2.2°C 93% 8.1 mph SSW13.0 kmh SSW 11.5 mph18.5 kmh 29.98 in1015.2 mb - 0.00 in0.0 mm 0.00 in0.0 mm
07:15 AM 37.8°F3.2°C 36.0°F2.2°C 93% 6.9 mph SSW11.1 kmh SSW 9.2 mph14.8 kmh 29.98 in1015.2 mb - 0.00 in0.0 mm 0.00 in0.0 mm
07:10 AM 37.8°F3.2°C 36.0°F2.2°C 93% 9.2 mph SW14.8 kmh SW 13.8 mph22.2 kmh 29.97 in1014.9 mb - 0.00 in0.0 mm 0.00 in0.0 mm
07:00 AM 37.8°F3.2°C 36.0°F2.2°C 93% 6.9 mph SW11.1 kmh SW 9.2 mph14.8 kmh 29.98 in1015.2 mb - 0.00 in0.0 mm 0.00 in0.0 mm
06:55 AM 37.8°F3.2°C 36.0°F2.2°C 93% 5.8 mph SSW9.3 kmh SSW 13.8 mph22.2 kmh 29.98 in1015.2 mb - 0.00 in0.0 mm 0.00 in0.0 mm
06:50 AM 37.8°F3.2°C 36.0°F2.2°C 93% 8.1 mph SSW13.0 kmh SSW 11.5 mph18.5 kmh 29.98 in1015.2 mb - 0.00 in0.0 mm 0.00 in0.0 mm
06:45 AM 37.9°F3.3°C 36.1°F2.3°C 93% 6.9 mph SW11.1 kmh SW 11.5 mph18.5 kmh 29.98 in1015.2 mb - 0.00 in0.0 mm 0.00 in0.0 mm
06:40 AM 37.9°F3.3°C 36.1°F2.3°C 93% 6.9 mph S11.1 kmh S 11.5 mph18.5 kmh 29.98 in1015.2 mb - 0.00 in0.0 mm 0.00 in0.0 mm
06:35 AM 37.9°F3.3°C 36.1°F2.3°C 93% 5.8 mph SW9.3 kmh SW 6.9 mph11.1 kmh 29.98 in1015.2 mb - 0.00 in0.0 mm 0.00 in0.0 mm
06:30 AM 37.9°F3.3°C 36.1°F2.3°C 93% 5.8 mph SSW9.3 kmh SSW 8.1 mph13.0 kmh 29.98 in1015.2 mb - 0.00 in0.0 mm 0.00 in0.0 mm
06:25 AM 37.9°F3.3°C 36.1°F2.3°C 93% 6.9 mph SSW11.1 kmh SSW 13.8 mph22.2 kmh 29.99 in1015.6 mb - 0.00 in0.0 mm 0.00 in0.0 mm
06:20 AM 37.9°F3.3°C 36.1°F2.3°C 93% 6.9 mph SW11.1 kmh SW 9.2 mph14.8 kmh 29.99 in1015.6 mb - 0.00 in0.0 mm 0.00 in0.0 mm
06:15 AM 37.9°F3.3°C 36.1°F2.3°C 93% 6.9 mph SSW11.1 kmh SSW 10.4 mph16.7 kmh 29.99 in1015.6 mb - 0.00 in0.0 mm 0.00 in0.0 mm
06:10 AM 37.9°F3.3°C 36.1°F2.3°C 93% 4.6 mph SW7.4 kmh SW 6.9 mph11.1 kmh 29.99 in1015.6 mb - 0.00 in0.0 mm 0.00 in0.0 mm
06:00 AM 38.0°F3.3°C 36.2°F2.3°C 93% 4.6 mph SSW7.4 kmh SSW 6.9 mph11.1 kmh 29.99 in1015.6 mb - 0.00 in0.0 mm 0.00 in0.0 mm
05:55 AM 38.1°F3.4°C 36.2°F2.3°C 93% 4.6 mph S7.4 kmh S 9.2 mph14.8 kmh 29.99 in1015.6 mb - 0.00 in0.0 mm 0.00 in0.0 mm
05:50 AM 38.1°F3.4°C 36.3°F2.4°C 93% 8.1 mph SSW13.0 kmh SSW 13.8 mph22.2 kmh 29.99 in1015.6 mb - 0.00 in0.0 mm 0.00 in0.0 mm
05:45 AM 38.1°F3.4°C 36.3°F2.4°C 93% 5.8 mph SSW9.3 kmh SSW 8.1 mph13.0 kmh 29.99 in1015.6 mb - 0.00 in0.0 mm 0.00 in0.0 mm
05:40 AM 38.2°F3.4°C 36.4°F2.4°C 93% 8.1 mph SSW13.0 kmh SSW 9.2 mph14.8 kmh 29.98 in1015.2 mb - 0.00 in0.0 mm 0.00 in0.0 mm
05:35 AM 38.2°F3.4°C 36.4°F2.4°C 93% 8.1 mph SSW13.0 kmh SSW 11.5 mph18.5 kmh 29.99 in1015.6 mb - 0.00 in0.0 mm 0.00 in0.0 mm
05:30 AM 38.3°F3.5°C 36.5°F2.5°C 93% 8.1 mph SW13.0 kmh SW 11.5 mph18.5 kmh 29.98 in1015.2 mb - 0.00 in0.0 mm 0.00 in0.0 mm
05:25 AM 38.3°F3.5°C 36.5°F2.5°C 93% 6.9 mph SSW11.1 kmh SSW 9.2 mph14.8 kmh 29.99 in1015.6 mb - 0.00 in0.0 mm 0.00 in0.0 mm
05:20 AM 38.4°F3.6°C 36.6°F2.6°C 93% 8.1 mph SSW13.0 kmh SSW 11.5 mph18.5 kmh 29.99 in1015.6 mb - 0.00 in0.0 mm 0.00 in0.0 mm
05:15 AM 38.4°F3.6°C 36.6°F2.6°C 93% 5.8 mph SW9.3 kmh SW 9.2 mph14.8 kmh 29.99 in1015.6 mb - 0.00 in0.0 mm 0.00 in0.0 mm
05:10 AM 38.4°F3.6°C 36.6°F2.6°C 93% 5.8 mph SW9.3 kmh SW 8.1 mph13.0 kmh 29.99 in1015.6 mb - 0.00 in0.0 mm 0.00 in0.0 mm
05:00 AM 38.4°F3.6°C 36.6°F2.6°C 93% 8.1 mph SW13.0 kmh SW 11.5 mph18.5 kmh 29.98 in1015.2 mb - 0.00 in0.0 mm 0.00 in0.0 mm
04:55 AM 38.5°F3.6°C 36.7°F2.6°C 93% 5.8 mph SSW9.3 kmh SSW 9.2 mph14.8 kmh 29.99 in1015.6 mb - 0.00 in0.0 mm 0.00 in0.0 mm
04:50 AM 38.5°F3.6°C 36.7°F2.6°C 93% 5.8 mph SSW9.3 kmh SSW 15.0 mph24.1 kmh 29.98 in1015.2 mb - 0.00 in0.0 mm 0.00 in0.0 mm
04:45 AM 38.5°F3.6°C 36.7°F2.6°C 93% 8.1 mph SSW13.0 kmh SSW 10.4 mph16.7 kmh 29.98 in1015.2 mb - 0.00 in0.0 mm 0.00 in0.0 mm
04:40 AM 38.6°F3.7°C 36.8°F2.7°C 93% 4.6 mph SSW7.4 kmh SSW 6.9 mph11.1 kmh 29.98 in1015.2 mb - 0.00 in0.0 mm 0.00 in0.0 mm
04:35 AM 38.6°F3.7°C 36.8°F2.7°C 93% 6.9 mph SSW11.1 kmh SSW 9.2 mph14.8 kmh 29.99 in1015.6 mb - 0.00 in0.0 mm 0.00 in0.0 mm
04:30 AM 38.6°F3.7°C 36.8°F2.7°C 93% 6.9 mph SW11.1 kmh SW 11.5 mph18.5 kmh 29.98 in1015.2 mb - 0.00 in0.0 mm 0.00 in0.0 mm
04:25 AM 38.6°F3.7°C 36.8°F2.7°C 93% 8.1 mph SSW13.0 kmh SSW 11.5 mph18.5 kmh 29.98 in1015.2 mb - 0.00 in0.0 mm 0.00 in0.0 mm
04:20 AM 38.6°F3.7°C 36.8°F2.7°C 93% 9.2 mph SW14.8 kmh SW 11.5 mph18.5 kmh 29.99 in1015.6 mb - 0.00 in0.0 mm 0.00 in0.0 mm
04:15 AM 38.6°F3.7°C 36.8°F2.7°C 93% 9.2 mph SW14.8 kmh SW 13.8 mph22.2 kmh 29.99 in1015.6 mb - 0.00 in0.0 mm 0.00 in0.0 mm
04:10 AM 38.6°F3.7°C 36.8°F2.7°C 93% 6.9 mph SSW11.1 kmh SSW 11.5 mph18.5 kmh 29.99 in1015.6 mb - 0.00 in0.0 mm 0.00 in0.0 mm
04:00 AM 38.6°F3.7°C 36.8°F2.7°C 93% 5.8 mph SSW9.3 kmh SSW 11.5 mph18.5 kmh 29.99 in1015.6 mb - 0.00 in0.0 mm 0.00 in0.0 mm
03:55 AM 38.6°F3.7°C 36.8°F2.7°C 93% 6.9 mph SW11.1 kmh SW 10.4 mph16.7 kmh 29.99 in1015.6 mb - 0.00 in0.0 mm 0.00 in0.0 mm
03:50 AM 38.6°F3.7°C 36.8°F2.7°C 93% 8.1 mph SSW13.0 kmh SSW 11.5 mph18.5 kmh 30.00 in1015.9 mb - 0.00 in0.0 mm 0.00 in0.0 mm
03:45 AM 38.6°F3.7°C 36.8°F2.7°C 93% 9.2 mph SW14.8 kmh SW 11.5 mph18.5 kmh 30.00 in1015.9 mb - 0.00 in0.0 mm 0.00 in0.0 mm
03:40 AM 38.6°F3.7°C 36.8°F2.7°C 93% 6.9 mph SW11.1 kmh SW 9.2 mph14.8 kmh 30.00 in1015.9 mb - 0.00 in0.0 mm 0.00 in0.0 mm
03:35 AM 38.6°F3.7°C 36.8°F2.7°C 93% 5.8 mph SSW9.3 kmh SSW 10.4 mph16.7 kmh 30.00 in1015.9 mb - 0.00 in0.0 mm 0.00 in0.0 mm
03:30 AM 38.7°F3.7°C 36.8°F2.7°C 93% 8.1 mph SSW13.0 kmh SSW 10.4 mph16.7 kmh 30.00 in1015.9 mb - 0.00 in0.0 mm 0.00 in0.0 mm
03:25 AM 38.7°F3.7°C 36.9°F2.7°C 93% 5.8 mph SSW9.3 kmh SSW 9.2 mph14.8 kmh 30.00 in1015.9 mb - 0.00 in0.0 mm 0.00 in0.0 mm
03:20 AM 38.7°F3.7°C 36.9°F2.7°C 93% 8.1 mph SW13.0 kmh SW 10.4 mph16.7 kmh 30.00 in1015.9 mb - 0.00 in0.0 mm 0.00 in0.0 mm
03:15 AM 38.7°F3.7°C 36.9°F2.7°C 93% 6.9 mph S11.1 kmh S 12.7 mph20.4 kmh 30.00 in1015.9 mb - 0.00 in0.0 mm 0.00 in0.0 mm
03:10 AM 38.7°F3.7°C 36.9°F2.7°C 93% 6.9 mph SW11.1 kmh SW 11.5 mph18.5 kmh 30.00 in1015.9 mb - 0.00 in0.0 mm 0.00 in0.0 mm
03:00 AM 38.7°F3.7°C 36.9°F2.7°C 93% 8.1 mph SW13.0 kmh SW 11.5 mph18.5 kmh 30.00 in1015.9 mb - 0.00 in0.0 mm 0.00 in0.0 mm
02:55 AM 38.7°F3.7°C 36.9°F2.7°C 93% 6.9 mph SW11.1 kmh SW 9.2 mph14.8 kmh 30.00 in1015.9 mb - 0.00 in0.0 mm 0.00 in0.0 mm
02:50 AM 38.8°F3.8°C 36.9°F2.7°C 93% 5.8 mph SSW9.3 kmh SSW 8.1 mph13.0 kmh 30.01 in1016.3 mb - 0.00 in0.0 mm 0.00 in0.0 mm
02:45 AM 38.8°F3.8°C 36.9°F2.7°C 93% 8.1 mph SW13.0 kmh SW 11.5 mph18.5 kmh 30.00 in1015.9 mb - 0.00 in0.0 mm 0.00 in0.0 mm
02:40 AM 38.8°F3.8°C 36.9°F2.7°C 93% 6.9 mph SSW11.1 kmh SSW 10.4 mph16.7 kmh 30.00 in1015.9 mb - 0.00 in0.0 mm 0.00 in0.0 mm
02:35 AM 38.8°F3.8°C 36.9°F2.7°C 93% 6.9 mph SW11.1 kmh SW 11.5 mph18.5 kmh 30.01 in1016.3 mb - 0.00 in0.0 mm 0.00 in0.0 mm
02:30 AM 38.8°F3.8°C 36.9°F2.7°C 93% 9.2 mph SW14.8 kmh SW 10.4 mph16.7 kmh 30.01 in1016.3 mb - 0.00 in0.0 mm 0.00 in0.0 mm
02:25 AM 38.8°F3.8°C 37.0°F2.8°C 93% 6.9 mph SW11.1 kmh SW 9.2 mph14.8 kmh 30.01 in1016.3 mb - 0.00 in0.0 mm 0.00 in0.0 mm
02:20 AM 38.8°F3.8°C 36.9°F2.7°C 93% 8.1 mph SW13.0 kmh SW 13.8 mph22.2 kmh 30.01 in1016.3 mb - 0.00 in0.0 mm 0.00 in0.0 mm
02:15 AM 38.9°F3.8°C 37.0°F2.8°C 93% 5.8 mph SW9.3 kmh SW 9.2 mph14.8 kmh 30.01 in1016.3 mb - 0.00 in0.0 mm 0.00 in0.0 mm
02:10 AM 38.8°F3.8°C 36.9°F2.7°C 93% 6.9 mph SW11.1 kmh SW 9.2 mph14.8 kmh 30.01 in1016.3 mb - 0.00 in0.0 mm 0.00 in0.0 mm
02:00 AM 38.8°F3.8°C 36.9°F2.7°C 93% 8.1 mph SW13.0 kmh SW 11.5 mph18.5 kmh 30.01 in1016.3 mb - 0.00 in0.0 mm 0.00 in0.0 mm
01:55 AM 38.8°F3.8°C 37.0°F2.8°C 93% 6.9 mph SW11.1 kmh SW 12.7 mph20.4 kmh 30.02 in1016.6 mb - 0.00 in0.0 mm 0.00 in0.0 mm
01:50 AM 38.9°F3.8°C 37.0°F2.8°C 93% 6.9 mph SW11.1 kmh SW 10.4 mph16.7 kmh 30.01 in1016.3 mb - 0.00 in0.0 mm 0.00 in0.0 mm
01:45 AM 38.9°F3.8°C 37.0°F2.8°C 93% 6.9 mph SW11.1 kmh SW 9.2 mph14.8 kmh 30.01 in1016.3 mb - 0.00 in0.0 mm 0.00 in0.0 mm
01:40 AM 38.9°F3.8°C 37.0°F2.8°C 93% 5.8 mph SW9.3 kmh SW 9.2 mph14.8 kmh 30.02 in1016.6 mb - 0.00 in0.0 mm 0.00 in0.0 mm
01:35 AM 38.9°F3.8°C 37.1°F2.8°C 93% 6.9 mph SW11.1 kmh SW 9.2 mph14.8 kmh 30.02 in1016.6 mb - 0.00 in0.0 mm 0.00 in0.0 mm
01:30 AM 39.0°F3.9°C 37.1°F2.8°C 93% 4.6 mph SSW7.4 kmh SSW 9.2 mph14.8 kmh 30.02 in1016.6 mb - 0.00 in0.0 mm 0.00 in0.0 mm
01:25 AM 38.9°F3.8°C 37.1°F2.8°C 93% 9.2 mph SW14.8 kmh SW 13.8 mph22.2 kmh 30.01 in1016.3 mb - 0.00 in0.0 mm 0.00 in0.0 mm
01:20 AM 39.0°F3.9°C 37.1°F2.8°C 93% 6.9 mph SW11.1 kmh SW 11.5 mph18.5 kmh 30.02 in1016.6 mb - 0.00 in0.0 mm 0.00 in0.0 mm
01:15 AM 39.0°F3.9°C 37.1°F2.8°C 93% 6.9 mph SW11.1 kmh SW 9.2 mph14.8 kmh 30.02 in1016.6 mb - 0.00 in0.0 mm 0.00 in0.0 mm
01:10 AM 39.0°F3.9°C 37.1°F2.8°C 93% 6.9 mph SSW11.1 kmh SSW 11.5 mph18.5 kmh 30.02 in1016.6 mb - 0.00 in0.0 mm 0.00 in0.0 mm
01:00 AM 39.1°F3.9°C 37.2°F2.9°C 93% 10.4 mph SW16.7 kmh SW 13.8 mph22.2 kmh 30.02 in1016.6 mb - 0.00 in0.0 mm 0.00 in0.0 mm
12:55 AM 39.1°F3.9°C 37.2°F2.9°C 93% 4.6 mph SW7.4 kmh SW 6.9 mph11.1 kmh 30.02 in1016.6 mb - 0.00 in0.0 mm 0.00 in0.0 mm
12:50 AM 39.1°F3.9°C 37.2°F2.9°C 93% 6.9 mph SW11.1 kmh SW 11.5 mph18.5 kmh 30.03 in1016.9 mb - 0.00 in0.0 mm 0.00 in0.0 mm
12:45 AM 39.1°F3.9°C 37.3°F2.9°C 93% 9.2 mph SW14.8 kmh SW 11.5 mph18.5 kmh 30.03 in1016.9 mb - 0.00 in0.0 mm 0.00 in0.0 mm
12:40 AM 39.2°F4.0°C 37.3°F2.9°C 93% 8.1 mph SW13.0 kmh SW 11.5 mph18.5 kmh 30.02 in1016.6 mb - 0.00 in0.0 mm 0.00 in0.0 mm
12:35 AM 39.2°F4.0°C 37.3°F2.9°C 93% 10.4 mph SW16.7 kmh SW 15.0 mph24.1 kmh 30.02 in1016.6 mb - 0.00 in0.0 mm 0.00 in0.0 mm
12:30 AM 39.3°F4.1°C 37.4°F3.0°C 93% 8.1 mph SSW13.0 kmh SSW 11.5 mph18.5 kmh 30.03 in1016.9 mb - 0.00 in0.0 mm 0.00 in0.0 mm
12:25 AM 39.3°F4.1°C 37.4°F3.0°C 93% 8.1 mph SSW13.0 kmh SSW 11.5 mph18.5 kmh 30.03 in1016.9 mb - 0.00 in0.0 mm 0.00 in0.0 mm
12:20 AM 39.3°F4.1°C 37.4°F3.0°C 93% 8.1 mph SSW13.0 kmh SSW 11.5 mph18.5 kmh 30.03 in1016.9 mb - 0.00 in0.0 mm 0.00 in0.0 mm
12:15 AM 39.3°F4.1°C 37.4°F3.0°C 93% 6.9 mph SW11.1 kmh SW 9.2 mph14.8 kmh 30.03 in1016.9 mb - 0.00 in0.0 mm 0.00 in0.0 mm
12:10 AM 39.4°F4.1°C 37.5°F3.1°C 93% 11.5 mph SW18.5 kmh SW 17.3 mph27.8 kmh 30.03 in1016.9 mb - 0.00 in0.0 mm 0.00 in0.0 mm
12:00 AM 39.5°F4.2°C 37.6°F3.1°C 93% 5.8 mph SSW9.3 kmh SSW 11.5 mph18.5 kmh 30.03 in1016.9 mb - 0.00 in0.0 mm 0.00 in0.0 mm